createdAt,value
2019-03-30T00:01:54.152Z,98327.56
2019-03-30T00:04:24.617Z,98321.48
2019-03-30T00:06:54.696Z,98321.97
2019-03-30T00:09:24.959Z,98313.38
2019-03-30T00:11:57.840Z,98313.38
2019-03-30T00:14:27.370Z,98314.34
2019-03-30T00:16:57.968Z,98313.38
2019-03-30T00:19:34.754Z,98305.37
2019-03-30T00:22:00.632Z,98305.37
2019-03-30T00:24:30.971Z,98296.50
2019-03-30T00:27:01.356Z,98299.17
2019-03-30T00:29:32.138Z,98296.41
2019-03-30T00:32:02.355Z,98296.41
2019-03-30T00:34:33.772Z,98300.03
2019-03-30T00:37:04.299Z,98290.77
2019-03-30T00:39:34.947Z,98290.30
2019-03-30T00:42:05.342Z,98293.34
2019-03-30T00:44:35.676Z,98289.69
2019-03-30T00:47:06.356Z,98288.73
2019-03-30T00:49:48.527Z,98292.84
2019-03-30T00:52:08.612Z,98292.84
2019-03-30T00:54:38.988Z,98293.06
2019-03-30T00:57:09.109Z,98291.44
2019-03-30T00:59:39.658Z,98290.58
2019-03-30T01:02:10.126Z,98286.10
2019-03-30T01:04:40.511Z,98287.44
2019-03-30T01:07:11.139Z,98286.10
2019-03-30T01:09:41.511Z,98286.10
2019-03-30T01:12:11.970Z,98284.58
2019-03-30T01:14:42.713Z,98280.47
2019-03-30T01:17:13.222Z,98281.56
2019-03-30T01:19:43.604Z,98276.22
2019-03-30T01:22:15.210Z,98276.22
2019-03-30T01:24:45.585Z,98262.96
2019-03-30T01:27:15.824Z,98262.64
2019-03-30T01:29:46.019Z,98262.64
2019-03-30T01:32:16.344Z,98262.25
2019-03-30T01:34:46.716Z,98258.63
2019-03-30T01:37:17.445Z,98258.25
2019-03-30T01:39:47.600Z,98254.72
2019-03-30T01:42:17.820Z,98254.72
2019-03-30T01:44:48.175Z,98255.52
2019-03-30T01:47:18.556Z,98252.43
2019-03-30T01:49:49.322Z,98251.90
2019-03-30T01:52:19.707Z,98251.90
2019-03-30T01:54:50.096Z,98251.90
2019-03-30T01:57:20.604Z,98245.17
2019-03-30T01:59:50.837Z,98245.17
2019-03-30T02:02:21.305Z,98243.94
2019-03-30T02:04:52.005Z,98238.02
2019-03-30T02:07:22.525Z,98233.86
2019-03-30T02:09:53.197Z,98231.58
2019-03-30T02:12:23.533Z,98221.66
2019-03-30T02:14:53.998Z,98221.66
2019-03-30T02:17:24.738Z,98219.19
2019-03-30T02:19:55.404Z,98219.19
2019-03-30T02:22:26.209Z,98220.42
2019-03-30T02:24:56.477Z,98219.19
2019-03-30T02:27:26.982Z,98220.62
2019-03-30T02:29:57.785Z,98224.38
2019-03-30T02:32:28.167Z,98225.23
2019-03-30T02:34:58.520Z,98220.47
2019-03-30T02:37:28.661Z,98216.46
2019-03-30T02:39:59.010Z,98220.18
2019-03-30T02:42:29.320Z,98220.18
2019-03-30T02:44:59.541Z,98219.08
2019-03-30T02:47:30.827Z,98218.13
2019-03-30T02:50:01.095Z,98213.11
2019-03-30T02:52:31.771Z,98215.39
2019-03-30T02:55:02.014Z,98215.39
2019-03-30T02:57:32.385Z,98217.02
2019-03-30T03:00:02.750Z,98210.72
2019-03-30T03:02:33.232Z,98213.97
2019-03-30T03:05:04.677Z,98210.56
2019-03-30T03:07:35.163Z,98210.56
2019-03-30T03:10:05.626Z,98202.56
2019-03-30T03:12:36.020Z,98202.56
2019-03-30T03:15:06.522Z,98200.27
2019-03-30T03:17:36.915Z,98197.95
2019-03-30T03:20:07.527Z,98197.00
2019-03-30T03:22:38.506Z,98195.56
2019-03-30T03:25:09.608Z,98195.56
2019-03-30T03:27:40.043Z,98189.46
2019-03-30T03:30:10.666Z,98188.98
2019-03-30T03:32:41.159Z,98184.22
2019-03-30T03:35:11.693Z,98184.22
2019-03-30T03:37:45.535Z,98187.94
2019-03-30T03:40:14.287Z,98187.75
2019-03-30T03:42:44.681Z,98185.84
2019-03-30T03:45:15.302Z,98185.84
2019-03-30T03:47:45.746Z,98186.80
2019-03-30T03:50:48.141Z,98187.33
2019-03-30T03:53:18.912Z,98182.18
2019-03-30T03:55:49.362Z,98182.18
2019-03-30T03:58:20.585Z,98183.80
2019-03-30T04:00:50.805Z,98171.02
2019-03-30T04:03:21.104Z,98170.83
2019-03-30T04:05:51.953Z,98170.83
2019-03-30T04:08:22.609Z,98166.25
2019-03-30T04:10:53.051Z,98166.25
2019-03-30T04:13:23.593Z,98168.26
2019-03-30T04:15:54.168Z,98165.69
2019-03-30T04:18:24.826Z,98161.11
2019-03-30T04:20:55.334Z,98161.11
2019-03-30T04:23:26.371Z,98155.87
2019-03-30T04:25:56.707Z,98155.87
2019-03-30T04:28:27.100Z,98155.57
2019-03-30T04:30:57.936Z,98156.91
2019-03-30T04:33:28.507Z,98147.19
2019-03-30T04:35:58.963Z,98147.19
2019-03-30T04:38:29.811Z,98146.38
2019-03-30T04:41:00.234Z,98148.80
2019-03-30T04:43:30.757Z,98144.81
2019-03-30T04:46:01.734Z,98144.81
2019-03-30T04:48:32.299Z,98140.61
2019-03-30T04:51:02.686Z,98140.61
2019-03-30T04:53:33.221Z,98133.17
2019-03-30T04:56:03.423Z,98127.13
2019-03-30T04:58:34.178Z,98127.13
2019-03-30T05:01:05.321Z,98131.21
2019-03-30T05:03:36.044Z,98130.45
2019-03-30T05:06:06.592Z,98121.64
2019-03-30T05:08:36.878Z,98121.64
2019-03-30T05:11:07.358Z,98130.98
2019-03-30T05:13:37.940Z,98126.50
2019-03-30T05:16:08.960Z,98118.48
2019-03-30T05:18:40.145Z,98118.48
2019-03-30T05:21:11.721Z,98125.45
2019-03-30T05:23:42.459Z,98125.92
2019-03-30T05:26:13.404Z,98127.16
2019-03-30T05:28:45.560Z,98127.16
2019-03-30T05:31:17.869Z,98129.73
2019-03-30T05:33:48.341Z,98119.91
2019-03-30T05:36:18.894Z,98119.91
2019-03-30T05:38:49.768Z,98125.02
2019-03-30T05:41:21.537Z,98127.21
2019-03-30T05:43:52.097Z,98127.11
2019-03-30T05:46:22.569Z,98133.36
2019-03-30T05:48:53.093Z,98123.44
2019-03-30T05:51:23.930Z,98124.14
2019-03-30T05:53:54.793Z,98120.56
2019-03-30T05:56:25.319Z,98117.89
2019-03-30T05:58:55.650Z,98117.89
2019-03-30T06:01:25.975Z,98124.99
2019-03-30T06:03:56.910Z,98122.27
2019-03-30T06:06:27.472Z,98122.48
2019-03-30T06:08:58.175Z,98122.48
2019-03-30T06:11:28.749Z,98123.72
2019-03-30T06:13:59.161Z,98116.73
2019-03-30T06:16:29.801Z,98118.31
2019-03-30T06:19:00.180Z,98112.08
2019-03-30T06:21:30.654Z,98108.14
2019-03-30T06:24:01.136Z,98108.14
2019-03-30T06:26:31.888Z,98109.20
2019-03-30T06:29:02.387Z,98109.20
2019-03-30T06:31:32.770Z,98098.77
2019-03-30T06:34:03.150Z,98100.40
2019-03-30T06:36:33.922Z,98102.72
2019-03-30T06:39:05.491Z,98102.72
2019-03-30T06:41:35.825Z,98100.34
2019-03-30T06:44:06.525Z,98093.94
2019-03-30T06:46:39.468Z,98089.77
2019-03-30T06:49:10.021Z,98089.97
2019-03-30T06:51:40.699Z,98089.97
2019-03-30T06:54:14.668Z,98089.91
2019-03-30T06:56:43.556Z,98087.87
2019-03-30T06:59:14.243Z,98096.07
2019-03-30T07:01:45.415Z,98096.07
2019-03-30T07:04:15.939Z,98094.19
2019-03-30T07:06:46.777Z,98107.25
2019-03-30T07:09:17.114Z,98104.34
2019-03-30T07:11:47.581Z,98093.03
2019-03-30T07:14:19.087Z,98096.34
2019-03-30T07:16:49.945Z,98096.34
2019-03-30T07:19:20.290Z,98092.95
2019-03-30T07:21:50.762Z,98095.51
2019-03-30T07:24:21.219Z,98089.19
2019-03-30T07:26:52.113Z,98092.23
2019-03-30T07:29:22.765Z,98092.23
2019-03-30T07:31:53.401Z,98093.84
2019-03-30T07:34:23.925Z,98095.66
2019-03-30T07:36:54.612Z,98094.68
2019-03-30T07:39:25.611Z,98096.63
2019-03-30T07:41:56.147Z,98096.63
2019-03-30T07:44:26.872Z,98092.72
2019-03-30T07:46:57.419Z,98092.72
2019-03-30T07:49:27.733Z,98096.02
2019-03-30T07:51:58.154Z,98096.02
2019-03-30T07:54:28.761Z,98095.34
2019-03-30T07:57:06.226Z,98095.34
2019-03-30T07:59:33.548Z,98095.13
2019-03-30T08:02:04.459Z,98088.48
2019-03-30T08:04:35.003Z,98088.48
2019-03-30T08:07:07.133Z,98096.14
2019-03-30T08:09:37.492Z,98093.09
2019-03-30T08:12:07.976Z,98099.68
2019-03-30T08:14:40.062Z,98097.39
2019-03-30T08:17:10.659Z,98090.17
2019-03-30T08:19:41.543Z,98090.17
2019-03-30T08:22:15.476Z,98091.42
2019-03-30T08:25:46.027Z,98083.41
2019-03-30T08:28:16.373Z,98094.96
2019-03-30T08:30:46.814Z,98094.96
2019-03-30T08:33:17.251Z,98093.51
2019-03-30T08:35:47.753Z,98093.48
2019-03-30T08:38:18.167Z,98092.62
2019-03-30T08:40:48.492Z,98092.62
2019-03-30T08:43:19.090Z,98090.78
2019-03-30T08:45:49.557Z,98095.08
2019-03-30T08:48:20.180Z,98095.08
2019-03-30T08:50:50.679Z,98087.86
2019-03-30T08:53:21.730Z,98088.32
2019-03-30T08:55:52.768Z,98075.74
2019-03-30T08:58:23.489Z,98077.61
2019-03-30T09:00:54.010Z,98077.61
2019-03-30T09:03:24.383Z,98070.49
2019-03-30T09:05:56.083Z,98070.49
2019-03-30T09:08:28.993Z,98070.66
2019-03-30T09:10:59.820Z,98068.98
2019-03-30T09:13:30.088Z,98062.47
2019-03-30T09:16:00.601Z,98062.47
2019-03-30T09:18:32.468Z,98068.27
2019-03-30T09:21:03.437Z,98057.84
2019-03-30T09:23:34.149Z,98057.84
2019-03-30T09:26:04.777Z,98059.52
2019-03-30T09:28:35.857Z,98057.38
2019-03-30T09:31:06.426Z,98055.06
2019-03-30T09:33:37.249Z,98046.60
2019-03-30T09:36:07.657Z,98047.53
2019-03-30T09:38:38.474Z,98035.06
2019-03-30T09:41:08.947Z,98035.06
2019-03-30T09:43:39.397Z,98046.75
2019-03-30T09:46:09.911Z,98034.87
2019-03-30T09:48:40.759Z,98029.23
2019-03-30T09:51:33.006Z,98028.08
2019-03-30T09:54:05.719Z,98029.94
2019-03-30T09:56:36.699Z,98023.70
2019-03-30T09:59:07.795Z,98023.70
2019-03-30T10:01:38.183Z,98025.67
2019-03-30T10:04:14.996Z,98014.53
2019-03-30T10:06:46.789Z,98014.53
2019-03-30T10:09:16.994Z,98013.43
2019-03-30T10:11:47.437Z,98013.43
2019-03-30T10:14:18.012Z,98017.33
2019-03-30T10:16:48.781Z,98021.11
2019-03-30T10:19:19.375Z,98021.11
2019-03-30T10:21:50.069Z,97997.30
2019-03-30T10:24:20.607Z,98017.78
2019-03-30T10:26:51.093Z,98014.96
2019-03-30T10:29:21.865Z,98019.77
2019-03-30T10:31:52.377Z,98005.27
2019-03-30T10:34:22.833Z,98018.77
2019-03-30T10:36:53.676Z,98018.77
2019-03-30T10:39:24.055Z,98008.48
2019-03-30T10:41:54.824Z,98005.27
2019-03-30T10:44:25.190Z,98005.27
2019-03-30T10:46:55.965Z,98005.27
2019-03-30T10:49:26.360Z,98008.03
2019-03-30T10:51:56.970Z,98002.47
2019-03-30T10:54:28.573Z,98006.29
2019-03-30T10:57:04.911Z,98001.97
2019-03-30T10:59:35.490Z,98001.97
2019-03-30T11:02:07.558Z,97997.83
2019-03-30T11:04:38.279Z,98000.42
2019-03-30T11:07:15.841Z,98000.42
2019-03-30T11:09:55.155Z,97997.72
2019-03-30T11:12:31.406Z,97997.06
2019-03-30T11:15:04.579Z,97994.97
2019-03-30T11:17:34.956Z,97995.05
2019-03-30T11:20:05.618Z,97987.11
2019-03-30T11:22:38.154Z,97983.33
2019-03-30T11:25:10.071Z,97988.34
2019-03-30T11:27:40.333Z,97976.41
2019-03-30T11:30:11.789Z,97979.05
2019-03-30T11:32:42.102Z,97979.05
2019-03-30T11:35:13.495Z,97986.80
2019-03-30T11:37:47.480Z,97984.05
2019-03-30T11:40:17.673Z,97972.51
2019-03-30T11:42:47.951Z,97972.51
2019-03-30T11:45:19.352Z,97971.47
2019-03-30T11:47:50.234Z,97971.47
2019-03-30T11:50:20.643Z,97970.09
2019-03-30T11:52:51.176Z,97970.09
2019-03-30T11:55:22.617Z,97970.27
2019-03-30T11:57:53.088Z,97959.41
2019-03-30T12:00:23.346Z,97955.06
2019-03-30T12:02:53.702Z,97947.31
2019-03-30T12:05:24.735Z,97945.45
2019-03-30T12:07:55.613Z,97945.45
2019-03-30T12:10:26.671Z,97946.89
2019-03-30T12:12:57.188Z,97946.89
2019-03-30T12:15:32.214Z,97943.48
2019-03-30T12:18:06.031Z,97944.71
2019-03-30T12:20:36.345Z,97930.51
2019-03-30T12:23:06.641Z,97930.51
2019-03-30T12:25:37.185Z,97926.45
2019-03-30T12:28:07.834Z,97927.79
2019-03-30T12:30:39.096Z,97926.94
2019-03-30T12:33:09.649Z,97923.91
2019-03-30T12:35:44.481Z,97923.91
2019-03-30T12:38:15.305Z,97915.11
2019-03-30T12:40:46.627Z,97915.11
2019-03-30T12:43:17.122Z,97910.01
2019-03-30T12:45:47.682Z,97906.13
2019-03-30T12:48:18.555Z,97897.99
2019-03-30T12:50:49.197Z,97897.99
2019-03-30T12:53:20.103Z,97909.33
2019-03-30T12:55:50.458Z,97904.44
2019-03-30T12:58:22.747Z,97900.19
2019-03-30T13:00:55.684Z,97895.76
2019-03-30T13:03:26.509Z,97897.47
2019-03-30T13:05:57.302Z,97897.31
2019-03-30T13:08:29.382Z,97888.82
2019-03-30T13:11:00.383Z,97888.82
2019-03-30T13:13:30.770Z,97891.18
2019-03-30T13:16:01.137Z,97888.98
2019-03-30T13:18:31.740Z,97891.86
2019-03-30T13:21:13.131Z,97895.09
2019-03-30T13:23:43.790Z,97881.67
2019-03-30T13:26:14.273Z,97885.78
2019-03-30T13:28:45.184Z,97885.78
2019-03-30T13:31:15.486Z,97884.23
2019-03-30T13:33:45.823Z,97871.02
2019-03-30T13:36:16.496Z,97871.02
2019-03-30T13:38:46.969Z,97875.08
2019-03-30T13:41:17.796Z,97875.08
2019-03-30T13:43:49.541Z,97884.23
2019-03-30T13:46:23.129Z,97878.30
2019-03-30T13:48:53.553Z,97878.30
2019-03-30T13:51:24.315Z,97872.89
2019-03-30T13:53:54.838Z,97872.89
2019-03-30T13:56:25.742Z,97869.52
2019-03-30T13:58:57.685Z,97866.27
2019-03-30T14:01:28.833Z,97866.27
2019-03-30T14:03:59.139Z,97860.14
2019-03-30T14:06:29.335Z,97852.02
2019-03-30T14:09:01.167Z,97852.02
2019-03-30T14:11:31.646Z,97851.33
2019-03-30T14:14:01.947Z,97852.70
2019-03-30T14:16:32.594Z,97849.28
2019-03-30T14:19:03.073Z,97849.28
2019-03-30T14:21:34.018Z,97847.36
2019-03-30T14:24:04.577Z,97842.80
2019-03-30T14:26:35.009Z,97847.08
2019-03-30T14:29:05.376Z,97851.66
2019-03-30T14:31:36.084Z,97849.79
2019-03-30T14:34:06.441Z,97852.88
2019-03-30T14:36:37.096Z,97840.97
2019-03-30T14:39:08.641Z,97837.44
2019-03-30T14:41:41.599Z,97837.44
2019-03-30T14:44:12.490Z,97833.45
2019-03-30T14:46:43.143Z,97838.97
2019-03-30T14:49:13.738Z,97832.16
2019-03-30T14:51:45.333Z,97835.34
2019-03-30T14:54:16.210Z,97829.13
2019-03-30T14:56:47.179Z,97833.98
2019-03-30T14:59:18.064Z,97833.98
2019-03-30T15:01:48.742Z,97831.10
2019-03-30T15:04:21.301Z,97829.07
2019-03-30T15:06:52.145Z,97829.75
2019-03-30T15:09:22.600Z,97837.30
2019-03-30T15:11:53.469Z,97830.26
2019-03-30T15:14:23.898Z,97825.34
2019-03-30T15:16:54.536Z,97826.56
2019-03-30T15:19:25.117Z,97831.88
2019-03-30T15:21:55.611Z,97822.20
2019-03-30T15:24:26.160Z,97826.69
2019-03-30T15:27:00.252Z,97824.69
2019-03-30T15:29:29.165Z,97827.64
2019-03-30T15:32:14.256Z,97825.27
2019-03-30T15:34:45.330Z,97822.80
2019-03-30T15:37:15.926Z,97822.21
2019-03-30T15:39:46.625Z,97818.45
2019-03-30T15:42:17.498Z,97818.08
2019-03-30T15:44:48.696Z,97811.16
2019-03-30T15:47:19.027Z,97818.38
2019-03-30T15:49:49.561Z,97813.02
2019-03-30T15:52:21.037Z,97814.48
2019-03-30T15:54:58.188Z,97812.67
2019-03-30T15:57:29.047Z,97815.16
2019-03-30T16:00:00.389Z,97815.16
2019-03-30T16:02:31.085Z,97821.02
2019-03-30T16:05:02.557Z,97821.02
2019-03-30T16:07:35.524Z,97812.96
2019-03-30T16:10:17.866Z,97810.23
2019-03-30T16:12:49.565Z,97815.08
2019-03-30T16:15:19.876Z,97815.08
2019-03-30T16:17:50.513Z,97815.67
2019-03-30T16:20:21.411Z,97815.67
2019-03-30T16:22:53.642Z,97816.86
2019-03-30T16:25:24.828Z,97815.13
2019-03-30T16:27:55.691Z,97815.13
2019-03-30T16:30:27.767Z,97812.28
2019-03-30T16:32:58.106Z,97816.69
2019-03-30T16:35:28.314Z,97817.03
2019-03-30T16:37:59.835Z,97817.03
2019-03-30T16:40:30.555Z,97816.52
2019-03-30T16:43:02.007Z,97816.52
2019-03-30T16:45:33.340Z,97816.01
2019-03-30T16:48:04.059Z,97824.62
2019-03-30T16:50:35.143Z,97824.62
2019-03-30T16:53:06.174Z,97819.39
2019-03-30T16:55:37.327Z,97825.66
2019-03-30T16:58:07.943Z,97821.24
2019-03-30T17:00:38.471Z,97823.95
2019-03-30T17:03:09.077Z,97823.95
2019-03-30T17:05:39.321Z,97824.43
2019-03-30T17:08:09.966Z,97824.95
2019-03-30T17:10:41.546Z,97824.95
2019-03-30T17:13:12.179Z,97819.56
2019-03-30T17:15:42.598Z,97821.64
2019-03-30T17:18:17.366Z,97830.52
2019-03-30T17:20:47.629Z,97823.52
2019-03-30T17:23:18.700Z,97823.52
2019-03-30T17:25:53.384Z,97834.80
2019-03-30T17:28:23.959Z,97834.80
2019-03-30T17:30:54.403Z,97828.70
2019-03-30T17:33:25.241Z,97834.21
2019-03-30T17:35:56.464Z,97834.21
2019-03-30T17:38:27.006Z,97833.86
2019-03-30T17:40:58.527Z,97833.11
2019-03-30T17:43:29.180Z,97832.00
2019-03-30T17:45:59.678Z,97835.30
2019-03-30T17:48:30.546Z,97834.89
2019-03-30T17:51:01.593Z,97837.15
2019-03-30T17:53:34.313Z,97839.14
2019-03-30T17:56:05.219Z,97838.45
2019-03-30T17:58:35.551Z,97842.08
2019-03-30T18:01:06.400Z,97840.70
2019-03-30T18:03:37.236Z,97840.70
2019-03-30T18:06:07.522Z,97837.72
2019-03-30T18:08:38.281Z,97842.73
2019-03-30T18:11:09.125Z,97849.38
2019-03-30T18:13:39.527Z,97849.38
2019-03-30T18:16:10.781Z,97847.53
2019-03-30T18:18:41.353Z,97850.09
2019-03-30T18:21:18.792Z,97852.37
2019-03-30T18:23:57.245Z,97850.45
2019-03-30T18:26:27.989Z,97862.20
2019-03-30T18:28:58.635Z,97862.20
2019-03-30T18:31:37.933Z,97861.34
2019-03-30T18:34:09.173Z,97866.03
2019-03-30T18:36:40.725Z,97869.07
2019-03-30T18:39:11.779Z,97869.07
2019-03-30T18:41:45.227Z,97874.34
2019-03-30T18:44:15.969Z,97874.34
2019-03-30T18:46:48.685Z,97872.27
2019-03-30T18:49:19.656Z,97876.98
2019-03-30T18:51:50.439Z,97881.98
2019-03-30T18:54:20.795Z,97883.11
2019-03-30T18:56:56.302Z,97883.33
2019-03-30T18:59:27.246Z,97885.52
2019-03-30T19:01:57.915Z,97886.23
2019-03-30T19:04:28.776Z,97890.17
2019-03-30T19:06:59.566Z,97890.17
2019-03-30T19:09:29.992Z,97895.33
2019-03-30T19:12:00.759Z,97895.33
2019-03-30T19:14:31.247Z,97898.34
2019-03-30T19:17:03.065Z,97898.34
2019-03-30T19:19:34.398Z,97895.39
2019-03-30T19:22:05.370Z,97895.98
2019-03-30T19:24:35.726Z,97897.40
2019-03-30T19:27:06.374Z,97890.58
2019-03-30T19:29:41.210Z,97890.58
2019-03-30T19:32:13.340Z,97898.54
2019-03-30T19:34:45.223Z,97898.54
2019-03-30T19:37:18.003Z,97898.05
2019-03-30T19:39:48.363Z,97898.05
2019-03-30T19:42:23.398Z,97903.95
2019-03-30T19:44:53.952Z,97903.95
2019-03-30T19:47:25.153Z,97905.47
2019-03-30T19:50:00.005Z,97905.47
2019-03-30T19:52:39.679Z,97908.65
2019-03-30T19:55:02.625Z,97903.28
2019-03-30T19:57:33.175Z,97903.28
2019-03-30T20:00:05.684Z,97905.11
2019-03-30T20:02:36.496Z,97905.11
2019-03-30T20:05:09.930Z,97909.69
2019-03-30T20:07:41.071Z,97905.91
2019-03-30T20:10:12.720Z,97906.50
2019-03-30T20:12:44.039Z,97908.99
2019-03-30T20:15:16.788Z,97907.05
2019-03-30T20:17:47.247Z,97915.58
2019-03-30T20:20:18.166Z,97915.58
2019-03-30T20:22:49.202Z,97916.19
2019-03-30T20:25:20.713Z,97903.47
2019-03-30T20:27:52.010Z,97903.47
2019-03-30T20:30:24.402Z,97904.20
2019-03-30T20:32:55.020Z,97910.75
2019-03-30T20:35:33.780Z,97903.88
2019-03-30T20:38:04.673Z,97906.56
2019-03-30T20:40:35.674Z,97903.39
2019-03-30T20:43:06.753Z,97901.23
2019-03-30T20:45:37.234Z,97901.23
2019-03-30T20:48:07.890Z,97902.20
2019-03-30T20:50:38.796Z,97896.02
2019-03-30T20:53:09.355Z,97900.16
2019-03-30T20:55:41.673Z,97900.16
2019-03-30T20:58:12.655Z,97907.35
2019-03-30T21:00:43.172Z,97908.59
2019-03-30T21:03:13.565Z,97907.16
2019-03-30T21:05:44.463Z,97911.54
2019-03-30T21:08:16.908Z,97911.54
2019-03-30T21:10:47.345Z,97910.31
2019-03-30T21:13:17.967Z,97910.31
2019-03-30T21:15:48.842Z,97910.47
2019-03-30T21:18:19.591Z,97912.19
2019-03-30T21:20:53.255Z,97915.71
2019-03-30T21:23:23.836Z,97907.33
2019-03-30T21:25:56.403Z,97913.42
2019-03-30T21:28:26.598Z,97905.37
2019-03-30T21:30:57.328Z,97905.37
2019-03-30T21:33:29.049Z,97900.15
2019-03-30T21:36:00.062Z,97904.05
2019-03-30T21:38:30.705Z,97899.42
2019-03-30T21:41:01.221Z,97900.38
2019-03-30T21:43:31.608Z,97898.44
2019-03-30T21:46:02.477Z,97897.23
2019-03-30T21:48:34.312Z,97897.23
2019-03-30T21:51:18.031Z,97897.95
2019-03-30T21:53:49.452Z,97901.25
2019-03-30T21:56:20.001Z,97897.97
2019-03-30T21:58:50.456Z,97907.34
2019-03-30T22:01:21.667Z,97907.34
2019-03-30T22:03:52.152Z,97910.26
2019-03-30T22:06:23.045Z,97907.11
2019-03-30T22:08:53.536Z,97906.61
2019-03-30T22:11:24.159Z,97905.02
2019-03-30T22:13:55.351Z,97905.02
2019-03-30T22:16:25.854Z,97898.80
2019-03-30T22:18:56.414Z,97904.28
2019-03-30T22:21:27.124Z,97904.28
2019-03-30T22:23:57.827Z,97900.03
2019-03-30T22:26:28.362Z,97899.07
2019-03-30T22:28:59.087Z,97901.73
2019-03-30T22:31:29.842Z,97895.40
2019-03-30T22:34:00.834Z,97895.40
2019-03-30T22:36:31.170Z,97904.66
2019-03-30T22:39:01.637Z,97904.66
2019-03-30T22:41:32.667Z,97899.30
2019-03-30T22:44:03.205Z,97897.09
2019-03-30T22:46:33.536Z,97899.28
2019-03-30T22:49:04.041Z,97894.04
2019-03-30T22:51:38.282Z,97894.19
2019-03-30T22:54:11.839Z,97894.19
2019-03-30T22:56:42.947Z,97894.61
2019-03-30T22:59:14.558Z,97894.61
2019-03-30T23:01:47.942Z,97897.83
2019-03-30T23:04:19.381Z,97899.11
2019-03-30T23:06:50.167Z,97897.89
2019-03-30T23:09:21.132Z,97899.94
2019-03-30T23:11:51.774Z,97896.66
2019-03-30T23:14:22.700Z,97898.48
2019-03-30T23:16:53.180Z,97899.08
2019-03-30T23:19:23.708Z,97904.32
2019-03-30T23:21:55.161Z,97904.20
2019-03-30T23:24:26.090Z,97904.20
2019-03-30T23:26:56.319Z,97896.63
2019-03-30T23:29:27.050Z,97896.63
2019-03-30T23:31:57.671Z,97896.38
2019-03-30T23:34:28.133Z,97900.59
2019-03-30T23:36:58.725Z,97900.59
2019-03-30T23:39:29.209Z,97904.28
2019-03-30T23:41:59.715Z,97904.28
2019-03-30T23:44:30.328Z,97891.88
2019-03-30T23:47:01.133Z,97894.29
2019-03-30T23:49:31.683Z,97888.09
2019-03-30T23:52:02.408Z,97883.84
2019-03-30T23:54:33.248Z,97883.84
2019-03-30T23:57:04.328Z,97885.67
2019-03-30T23:59:34.805Z,97885.19
